sensor_id;sensor_type;location;lat;lon;timestamp;P1;durP1;ratioP1;P2;durP2;ratioP2
21492;SDS011;10908;50.690;4.400;2023-06-10T00:01:24;11.65;;;5.72;;
21492;SDS011;10908;50.690;4.400;2023-06-10T00:03:50;9.07;;;5.78;;
21492;SDS011;10908;50.690;4.400;2023-06-10T00:06:16;11.98;;;5.75;;
21492;SDS011;10908;50.690;4.400;2023-06-10T00:08:43;9.85;;;5.80;;
21492;SDS011;10908;50.690;4.400;2023-06-10T00:11:08;10.45;;;5.88;;
21492;SDS011;10908;50.690;4.400;2023-06-10T00:13:35;9.00;;;6.00;;
21492;SDS011;10908;50.690;4.400;2023-06-10T00:16:02;11.60;;;5.78;;
21492;SDS011;10908;50.690;4.400;2023-06-10T00:18:28;13.85;;;6.28;;
21492;SDS011;10908;50.690;4.400;2023-06-10T00:20:56;8.45;;;5.70;;
21492;SDS011;10908;50.690;4.400;2023-06-10T00:23:22;8.18;;;5.88;;
21492;SDS011;10908;50.690;4.400;2023-06-10T00:25:50;9.32;;;5.93;;
21492;SDS011;10908;50.690;4.400;2023-06-10T00:28:15;9.27;;;6.00;;
21492;SDS011;10908;50.690;4.400;2023-06-10T00:30:41;10.02;;;6.25;;
21492;SDS011;10908;50.690;4.400;2023-06-10T00:33:06;15.75;;;6.32;;
21492;SDS011;10908;50.690;4.400;2023-06-10T00:35:32;10.35;;;6.22;;
21492;SDS011;10908;50.690;4.400;2023-06-10T00:37:58;8.07;;;6.13;;
21492;SDS011;10908;50.690;4.400;2023-06-10T00:40:23;12.70;;;6.05;;
21492;SDS011;10908;50.690;4.400;2023-06-10T00:42:49;8.70;;;6.22;;
21492;SDS011;10908;50.690;4.400;2023-06-10T00:45:15;10.98;;;6.60;;
21492;SDS011;10908;50.690;4.400;2023-06-10T00:47:40;9.73;;;6.80;;
21492;SDS011;10908;50.690;4.400;2023-06-10T00:50:06;10.98;;;6.25;;
21492;SDS011;10908;50.690;4.400;2023-06-10T00:52:32;10.13;;;6.45;;
21492;SDS011;10908;50.690;4.400;2023-06-10T00:55:00;11.90;;;6.75;;
21492;SDS011;10908;50.690;4.400;2023-06-10T00:57:26;10.05;;;6.25;;
21492;SDS011;10908;50.690;4.400;2023-06-10T00:59:51;10.43;;;6.60;;
21492;SDS011;10908;50.690;4.400;2023-06-10T01:02:17;11.85;;;7.25;;
21492;SDS011;10908;50.690;4.400;2023-06-10T01:04:43;12.60;;;7.05;;
21492;SDS011;10908;50.690;4.400;2023-06-10T01:07:17;12.93;;;6.90;;
21492;SDS011;10908;50.690;4.400;2023-06-10T01:09:55;12.85;;;6.65;;
21492;SDS011;10908;50.690;4.400;2023-06-10T01:12:58;11.57;;;7.00;;
21492;SDS011;10908;50.690;4.400;2023-06-10T01:15:32;13.20;;;6.72;;
21492;SDS011;10908;50.690;4.400;2023-06-10T01:17:59;12.43;;;7.22;;
21492;SDS011;10908;50.690;4.400;2023-06-10T01:20:27;11.75;;;7.63;;
21492;SDS011;10908;50.690;4.400;2023-06-10T01:22:57;11.45;;;7.03;;
21492;SDS011;10908;50.690;4.400;2023-06-10T01:25:24;13.02;;;7.80;;
21492;SDS011;10908;50.690;4.400;2023-06-10T01:30:32;13.07;;;7.80;;
21492;SDS011;10908;50.690;4.400;2023-06-10T01:33:27;12.75;;;7.90;;
21492;SDS011;10908;50.690;4.400;2023-06-10T01:35:56;14.35;;;7.22;;
21492;SDS011;10908;50.690;4.400;2023-06-10T01:38:23;10.70;;;7.50;;
21492;SDS011;10908;50.690;4.400;2023-06-10T01:40:51;17.77;;;8.25;;
21492;SDS011;10908;50.690;4.400;2023-06-10T01:43:19;11.30;;;7.45;;
21492;SDS011;10908;50.690;4.400;2023-06-10T01:45:45;12.43;;;6.97;;
21492;SDS011;10908;50.690;4.400;2023-06-10T01:48:11;12.60;;;7.78;;
21492;SDS011;10908;50.690;4.400;2023-06-10T01:50:37;11.63;;;7.90;;
21492;SDS011;10908;50.690;4.400;2023-06-10T01:53:03;14.70;;;7.93;;
21492;SDS011;10908;50.690;4.400;2023-06-10T01:55:30;11.93;;;7.90;;
21492;SDS011;10908;50.690;4.400;2023-06-10T01:57:56;12.60;;;8.40;;
21492;SDS011;10908;50.690;4.400;2023-06-10T02:00:22;12.60;;;8.32;;
21492;SDS011;10908;50.690;4.400;2023-06-10T02:02:47;10.32;;;7.43;;
21492;SDS011;10908;50.690;4.400;2023-06-10T02:05:13;11.98;;;7.65;;
21492;SDS011;10908;50.690;4.400;2023-06-10T02:07:39;10.80;;;7.63;;
21492;SDS011;10908;50.690;4.400;2023-06-10T02:10:06;13.35;;;7.90;;
21492;SDS011;10908;50.690;4.400;2023-06-10T02:12:32;10.43;;;7.28;;
21492;SDS011;10908;50.690;4.400;2023-06-10T02:14:57;11.82;;;7.35;;
21492;SDS011;10908;50.690;4.400;2023-06-10T02:17:23;12.38;;;7.53;;
21492;SDS011;10908;50.690;4.400;2023-06-10T02:19:49;12.43;;;7.65;;
21492;SDS011;10908;50.690;4.400;2023-06-10T02:22:19;12.25;;;7.65;;
21492;SDS011;10908;50.690;4.400;2023-06-10T02:24:48;12.82;;;7.82;;
21492;SDS011;10908;50.690;4.400;2023-06-10T02:27:14;12.45;;;7.75;;
21492;SDS011;10908;50.690;4.400;2023-06-10T02:29:41;12.05;;;7.47;;
21492;SDS011;10908;50.690;4.400;2023-06-10T02:32:07;11.20;;;7.35;;
21492;SDS011;10908;50.690;4.400;2023-06-10T02:34:33;11.00;;;7.50;;
21492;SDS011;10908;50.690;4.400;2023-06-10T02:36:59;10.55;;;7.45;;
21492;SDS011;10908;50.690;4.400;2023-06-10T02:39:26;11.38;;;7.40;;
21492;SDS011;10908;50.690;4.400;2023-06-10T02:41:52;11.60;;;7.78;;
21492;SDS011;10908;50.690;4.400;2023-06-10T02:44:18;14.27;;;7.90;;
21492;SDS011;10908;50.690;4.400;2023-06-10T02:46:44;14.45;;;7.70;;
21492;SDS011;10908;50.690;4.400;2023-06-10T02:49:10;10.63;;;7.32;;
21492;SDS011;10908;50.690;4.400;2023-06-10T02:51:36;10.73;;;7.82;;
21492;SDS011;10908;50.690;4.400;2023-06-10T02:54:02;11.10;;;7.68;;
21492;SDS011;10908;50.690;4.400;2023-06-10T02:56:28;12.32;;;7.45;;
21492;SDS011;10908;50.690;4.400;2023-06-10T02:58:54;11.32;;;7.53;;
21492;SDS011;10908;50.690;4.400;2023-06-10T03:01:20;10.80;;;7.50;;
21492;SDS011;10908;50.690;4.400;2023-06-10T03:03:46;10.95;;;7.80;;
21492;SDS011;10908;50.690;4.400;2023-06-10T03:06:12;11.48;;;8.00;;
21492;SDS011;10908;50.690;4.400;2023-06-10T03:08:38;11.45;;;8.10;;
21492;SDS011;10908;50.690;4.400;2023-06-10T03:11:05;11.15;;;8.30;;
21492;SDS011;10908;50.690;4.400;2023-06-10T03:13:31;11.35;;;7.68;;
21492;SDS011;10908;50.690;4.400;2023-06-10T03:15:57;11.23;;;7.90;;
21492;SDS011;10908;50.690;4.400;2023-06-10T03:18:25;12.18;;;8.60;;
21492;SDS011;10908;50.690;4.400;2023-06-10T03:20:52;13.40;;;8.55;;
21492;SDS011;10908;50.690;4.400;2023-06-10T03:23:18;12.65;;;7.95;;
21492;SDS011;10908;50.690;4.400;2023-06-10T03:25:44;12.55;;;8.52;;
21492;SDS011;10908;50.690;4.400;2023-06-10T03:28:10;10.13;;;7.85;;
21492;SDS011;10908;50.690;4.400;2023-06-10T03:30:36;12.35;;;8.30;;
21492;SDS011;10908;50.690;4.400;2023-06-10T03:33:02;14.85;;;7.85;;
21492;SDS011;10908;50.690;4.400;2023-06-10T03:35:27;13.45;;;8.32;;
21492;SDS011;10908;50.690;4.400;2023-06-10T03:37:54;11.88;;;8.73;;
21492;SDS011;10908;50.690;4.400;2023-06-10T03:40:20;11.02;;;8.07;;
21492;SDS011;10908;50.690;4.400;2023-06-10T03:42:45;13.00;;;8.35;;
21492;SDS011;10908;50.690;4.400;2023-06-10T03:45:11;13.80;;;8.88;;
21492;SDS011;10908;50.690;4.400;2023-06-10T03:47:37;11.65;;;8.55;;
21492;SDS011;10908;50.690;4.400;2023-06-10T03:50:05;14.07;;;8.25;;
21492;SDS011;10908;50.690;4.400;2023-06-10T03:52:31;12.13;;;8.30;;
21492;SDS011;10908;50.690;4.400;2023-06-10T03:54:57;13.55;;;8.60;;
21492;SDS011;10908;50.690;4.400;2023-06-10T03:57:23;10.07;;;7.82;;
21492;SDS011;10908;50.690;4.400;2023-06-10T03:59:48;13.32;;;8.48;;
21492;SDS011;10908;50.690;4.400;2023-06-10T04:02:14;12.88;;;8.73;;
21492;SDS011;10908;50.690;4.400;2023-06-10T04:04:39;12.38;;;8.10;;
21492;SDS011;10908;50.690;4.400;2023-06-10T04:07:06;12.25;;;8.18;;
21492;SDS011;10908;50.690;4.400;2023-06-10T04:09:33;12.45;;;8.30;;
21492;SDS011;10908;50.690;4.400;2023-06-10T04:11:59;12.02;;;8.35;;
21492;SDS011;10908;50.690;4.400;2023-06-10T04:14:24;12.00;;;8.20;;
21492;SDS011;10908;50.690;4.400;2023-06-10T04:16:50;13.77;;;7.63;;
21492;SDS011;10908;50.690;4.400;2023-06-10T04:19:16;13.57;;;7.97;;
21492;SDS011;10908;50.690;4.400;2023-06-10T04:21:42;19.60;;;8.48;;
21492;SDS011;10908;50.690;4.400;2023-06-10T04:24:07;12.32;;;8.25;;
21492;SDS011;10908;50.690;4.400;2023-06-10T04:26:34;12.75;;;8.05;;
21492;SDS011;10908;50.690;4.400;2023-06-10T04:29:00;12.50;;;8.20;;
21492;SDS011;10908;50.690;4.400;2023-06-10T04:31:26;14.40;;;7.65;;
21492;SDS011;10908;50.690;4.400;2023-06-10T04:33:52;14.48;;;8.57;;
21492;SDS011;10908;50.690;4.400;2023-06-10T04:36:18;13.45;;;8.45;;
21492;SDS011;10908;50.690;4.400;2023-06-10T04:38:44;14.05;;;8.10;;
21492;SDS011;10908;50.690;4.400;2023-06-10T04:41:10;12.20;;;8.40;;
21492;SDS011;10908;50.690;4.400;2023-06-10T04:43:36;14.55;;;8.73;;
21492;SDS011;10908;50.690;4.400;2023-06-10T04:46:02;11.18;;;8.30;;
21492;SDS011;10908;50.690;4.400;2023-06-10T04:48:27;13.70;;;8.52;;
21492;SDS011;10908;50.690;4.400;2023-06-10T04:50:53;12.45;;;8.68;;
21492;SDS011;10908;50.690;4.400;2023-06-10T04:53:18;13.43;;;8.63;;
21492;SDS011;10908;50.690;4.400;2023-06-10T04:55:45;11.98;;;8.38;;
21492;SDS011;10908;50.690;4.400;2023-06-10T04:58:11;12.77;;;8.30;;
21492;SDS011;10908;50.690;4.400;2023-06-10T05:00:37;19.73;;;8.63;;
21492;SDS011;10908;50.690;4.400;2023-06-10T05:03:02;12.90;;;8.23;;
21492;SDS011;10908;50.690;4.400;2023-06-10T05:05:28;14.48;;;8.10;;
21492;SDS011;10908;50.690;4.400;2023-06-10T05:07:54;12.90;;;8.60;;
21492;SDS011;10908;50.690;4.400;2023-06-10T05:10:19;11.90;;;8.63;;
21492;SDS011;10908;50.690;4.400;2023-06-10T05:12:45;13.00;;;8.63;;
21492;SDS011;10908;50.690;4.400;2023-06-10T05:15:10;12.73;;;8.48;;
21492;SDS011;10908;50.690;4.400;2023-06-10T05:17:36;12.30;;;8.80;;
21492;SDS011;10908;50.690;4.400;2023-06-10T05:20:02;13.10;;;8.13;;
21492;SDS011;10908;50.690;4.400;2023-06-10T05:22:28;15.27;;;8.80;;
21492;SDS011;10908;50.690;4.400;2023-06-10T05:24:54;11.30;;;8.68;;
21492;SDS011;10908;50.690;4.400;2023-06-10T05:27:20;15.18;;;8.65;;
21492;SDS011;10908;50.690;4.400;2023-06-10T05:29:47;12.73;;;8.52;;
21492;SDS011;10908;50.690;4.400;2023-06-10T05:32:12;13.27;;;8.77;;
21492;SDS011;10908;50.690;4.400;2023-06-10T05:34:38;16.77;;;9.40;;
21492;SDS011;10908;50.690;4.400;2023-06-10T05:37:04;12.40;;;9.00;;
21492;SDS011;10908;50.690;4.400;2023-06-10T05:39:30;12.10;;;8.27;;
21492;SDS011;10908;50.690;4.400;2023-06-10T05:41:56;13.98;;;8.75;;
21492;SDS011;10908;50.690;4.400;2023-06-10T05:44:23;16.13;;;8.88;;
21492;SDS011;10908;50.690;4.400;2023-06-10T05:46:49;12.85;;;8.65;;
21492;SDS011;10908;50.690;4.400;2023-06-10T05:49:15;17.08;;;9.15;;
21492;SDS011;10908;50.690;4.400;2023-06-10T05:51:41;13.80;;;8.23;;
21492;SDS011;10908;50.690;4.400;2023-06-10T05:54:07;12.82;;;8.68;;
21492;SDS011;10908;50.690;4.400;2023-06-10T05:56:32;16.40;;;8.80;;
21492;SDS011;10908;50.690;4.400;2023-06-10T05:58:58;14.35;;;8.50;;
21492;SDS011;10908;50.690;4.400;2023-06-10T06:01:24;13.10;;;8.65;;
21492;SDS011;10908;50.690;4.400;2023-06-10T06:03:49;11.88;;;8.48;;
21492;SDS011;10908;50.690;4.400;2023-06-10T06:06:15;11.15;;;8.32;;
21492;SDS011;10908;50.690;4.400;2023-06-10T06:08:41;13.00;;;8.20;;
21492;SDS011;10908;50.690;4.400;2023-06-10T06:11:07;13.65;;;8.63;;
21492;SDS011;10908;50.690;4.400;2023-06-10T06:13:32;11.38;;;8.55;;
21492;SDS011;10908;50.690;4.400;2023-06-10T06:15:58;11.23;;;8.70;;
21492;SDS011;10908;50.690;4.400;2023-06-10T06:18:24;11.25;;;8.35;;
21492;SDS011;10908;50.690;4.400;2023-06-10T06:20:50;13.63;;;8.43;;
21492;SDS011;10908;50.690;4.400;2023-06-10T06:23:15;13.25;;;8.57;;
21492;SDS011;10908;50.690;4.400;2023-06-10T06:25:41;13.40;;;9.02;;
21492;SDS011;10908;50.690;4.400;2023-06-10T06:28:07;11.65;;;8.02;;
21492;SDS011;10908;50.690;4.400;2023-06-10T06:30:35;13.38;;;8.68;;
21492;SDS011;10908;50.690;4.400;2023-06-10T06:33:01;11.55;;;8.38;;
21492;SDS011;10908;50.690;4.400;2023-06-10T06:35:30;11.85;;;8.23;;
21492;SDS011;10908;50.690;4.400;2023-06-10T06:37:57;11.30;;;8.10;;
21492;SDS011;10908;50.690;4.400;2023-06-10T06:40:23;12.98;;;8.32;;
21492;SDS011;10908;50.690;4.400;2023-06-10T06:42:49;13.90;;;8.77;;
21492;SDS011;10908;50.690;4.400;2023-06-10T06:45:15;13.98;;;8.30;;
21492;SDS011;10908;50.690;4.400;2023-06-10T06:47:40;12.60;;;8.02;;
21492;SDS011;10908;50.690;4.400;2023-06-10T06:50:06;10.88;;;7.97;;
21492;SDS011;10908;50.690;4.400;2023-06-10T06:52:32;13.30;;;7.93;;
21492;SDS011;10908;50.690;4.400;2023-06-10T06:54:57;10.02;;;7.60;;
21492;SDS011;10908;50.690;4.400;2023-06-10T06:57:23;12.25;;;8.23;;
21492;SDS011;10908;50.690;4.400;2023-06-10T06:59:49;13.68;;;7.30;;
21492;SDS011;10908;50.690;4.400;2023-06-10T07:02:14;15.18;;;7.18;;
21492;SDS011;10908;50.690;4.400;2023-06-10T07:04:40;10.88;;;6.65;;
21492;SDS011;10908;50.690;4.400;2023-06-10T07:07:07;10.90;;;7.43;;
21492;SDS011;10908;50.690;4.400;2023-06-10T07:09:35;9.73;;;6.63;;
21492;SDS011;10908;50.690;4.400;2023-06-10T07:12:02;11.85;;;6.03;;
21492;SDS011;10908;50.690;4.400;2023-06-10T07:14:28;13.38;;;6.32;;
21492;SDS011;10908;50.690;4.400;2023-06-10T07:16:53;11.15;;;7.18;;
21492;SDS011;10908;50.690;4.400;2023-06-10T07:19:19;10.50;;;6.85;;
21492;SDS011;10908;50.690;4.400;2023-06-10T07:21:45;11.25;;;7.00;;
21492;SDS011;10908;50.690;4.400;2023-06-10T07:24:10;9.68;;;6.60;;
21492;SDS011;10908;50.690;4.400;2023-06-10T07:26:36;9.18;;;6.38;;
21492;SDS011;10908;50.690;4.400;2023-06-10T07:29:01;13.73;;;6.72;;
21492;SDS011;10908;50.690;4.400;2023-06-10T07:31:27;11.80;;;6.90;;
21492;SDS011;10908;50.690;4.400;2023-06-10T07:33:53;9.52;;;6.80;;
21492;SDS011;10908;50.690;4.400;2023-06-10T07:36:18;11.27;;;6.25;;
21492;SDS011;10908;50.690;4.400;2023-06-10T07:38:44;9.75;;;6.35;;
21492;SDS011;10908;50.690;4.400;2023-06-10T07:41:10;10.85;;;6.70;;
21492;SDS011;10908;50.690;4.400;2023-06-10T07:43:36;11.27;;;6.43;;
21492;SDS011;10908;50.690;4.400;2023-06-10T07:46:02;10.60;;;6.30;;
21492;SDS011;10908;50.690;4.400;2023-06-10T07:48:27;13.02;;;6.95;;
21492;SDS011;10908;50.690;4.400;2023-06-10T07:50:53;11.07;;;6.43;;
21492;SDS011;10908;50.690;4.400;2023-06-10T07:53:19;10.95;;;6.45;;
21492;SDS011;10908;50.690;4.400;2023-06-10T07:55:45;10.75;;;6.55;;
21492;SDS011;10908;50.690;4.400;2023-06-10T07:58:10;8.45;;;6.35;;
21492;SDS011;10908;50.690;4.400;2023-06-10T08:00:36;10.18;;;6.72;;
21492;SDS011;10908;50.690;4.400;2023-06-10T08:03:02;9.13;;;6.72;;
21492;SDS011;10908;50.690;4.400;2023-06-10T08:05:27;10.40;;;6.53;;
21492;SDS011;10908;50.690;4.400;2023-06-10T08:07:54;10.57;;;6.70;;
21492;SDS011;10908;50.690;4.400;2023-06-10T08:10:20;9.48;;;6.50;;
21492;SDS011;10908;50.690;4.400;2023-06-10T08:12:45;10.30;;;6.78;;
21492;SDS011;10908;50.690;4.400;2023-06-10T08:15:11;12.18;;;6.50;;
21492;SDS011;10908;50.690;4.400;2023-06-10T08:17:37;10.65;;;6.38;;
21492;SDS011;10908;50.690;4.400;2023-06-10T08:20:04;11.90;;;6.53;;
21492;SDS011;10908;50.690;4.400;2023-06-10T08:22:30;11.07;;;6.88;;
21492;SDS011;10908;50.690;4.400;2023-06-10T08:24:56;13.00;;;6.90;;
21492;SDS011;10908;50.690;4.400;2023-06-10T08:27:22;10.05;;;6.07;;
21492;SDS011;10908;50.690;4.400;2023-06-10T08:29:48;9.48;;;6.32;;
21492;SDS011;10908;50.690;4.400;2023-06-10T08:32:13;10.45;;;6.80;;
21492;SDS011;10908;50.690;4.400;2023-06-10T08:34:39;9.48;;;6.47;;
21492;SDS011;10908;50.690;4.400;2023-06-10T08:37:06;10.38;;;6.50;;
21492;SDS011;10908;50.690;4.400;2023-06-10T08:39:32;11.82;;;6.50;;
21492;SDS011;10908;50.690;4.400;2023-06-10T08:44:49;8.70;;;5.63;;
21492;SDS011;10908;50.690;4.400;2023-06-10T08:47:20;8.70;;;6.07;;
21492;SDS011;10908;50.690;4.400;2023-06-10T08:49:48;11.15;;;6.28;;
21492;SDS011;10908;50.690;4.400;2023-06-10T08:52:15;12.18;;;6.45;;
21492;SDS011;10908;50.690;4.400;2023-06-10T08:54:52;13.82;;;6.07;;
21492;SDS011;10908;50.690;4.400;2023-06-10T08:57:22;11.32;;;6.43;;
21492;SDS011;10908;50.690;4.400;2023-06-10T08:59:48;13.15;;;6.05;;
21492;SDS011;10908;50.690;4.400;2023-06-10T09:02:14;9.57;;;5.95;;
21492;SDS011;10908;50.690;4.400;2023-06-10T09:04:43;12.15;;;6.35;;
21492;SDS011;10908;50.690;4.400;2023-06-10T09:07:11;8.93;;;5.93;;
21492;SDS011;10908;50.690;4.400;2023-06-10T09:09:39;10.82;;;6.38;;
21492;SDS011;10908;50.690;4.400;2023-06-10T09:12:10;9.35;;;6.03;;
21492;SDS011;10908;50.690;4.400;2023-06-10T09:14:37;9.50;;;5.47;;
21492;SDS011;10908;50.690;4.400;2023-06-10T09:17:03;9.20;;;5.57;;
21492;SDS011;10908;50.690;4.400;2023-06-10T09:19:30;8.75;;;5.60;;
21492;SDS011;10908;50.690;4.400;2023-06-10T09:21:56;12.15;;;6.10;;
21492;SDS011;10908;50.690;4.400;2023-06-10T09:24:23;8.52;;;5.80;;
21492;SDS011;10908;50.690;4.400;2023-06-10T09:26:49;8.95;;;5.43;;
21492;SDS011;10908;50.690;4.400;2023-06-10T09:29:16;9.18;;;6.05;;
21492;SDS011;10908;50.690;4.400;2023-06-10T09:31:42;9.30;;;5.45;;
21492;SDS011;10908;50.690;4.400;2023-06-10T09:34:10;9.10;;;5.57;;
21492;SDS011;10908;50.690;4.400;2023-06-10T09:36:37;9.45;;;5.57;;
21492;SDS011;10908;50.690;4.400;2023-06-10T09:39:04;9.13;;;5.88;;
21492;SDS011;10908;50.690;4.400;2023-06-10T09:41:39;11.80;;;5.53;;
21492;SDS011;10908;50.690;4.400;2023-06-10T09:44:15;11.73;;;5.30;;
21492;SDS011;10908;50.690;4.400;2023-06-10T09:46:45;7.05;;;5.28;;
21492;SDS011;10908;50.690;4.400;2023-06-10T09:49:12;9.00;;;5.50;;
21492;SDS011;10908;50.690;4.400;2023-06-10T09:51:48;10.23;;;5.10;;
21492;SDS011;10908;50.690;4.400;2023-06-10T09:54:19;10.02;;;5.30;;
21492;SDS011;10908;50.690;4.400;2023-06-10T09:56:48;8.50;;;5.25;;
21492;SDS011;10908;50.690;4.400;2023-06-10T09:59:16;11.02;;;5.43;;
21492;SDS011;10908;50.690;4.400;2023-06-10T10:01:55;11.68;;;5.30;;
21492;SDS011;10908;50.690;4.400;2023-06-10T10:04:24;13.30;;;5.60;;
21492;SDS011;10908;50.690;4.400;2023-06-10T10:06:50;9.63;;;4.93;;
21492;SDS011;10908;50.690;4.400;2023-06-10T10:09:16;8.32;;;5.18;;
21492;SDS011;10908;50.690;4.400;2023-06-10T10:11:42;8.63;;;5.15;;
21492;SDS011;10908;50.690;4.400;2023-06-10T10:14:09;8.00;;;5.20;;
21492;SDS011;10908;50.690;4.400;2023-06-10T10:16:36;11.75;;;5.70;;
21492;SDS011;10908;50.690;4.400;2023-06-10T10:19:53;7.43;;;5.15;;
21492;SDS011;10908;50.690;4.400;2023-06-10T10:22:07;9.23;;;5.47;;
21492;SDS011;10908;50.690;4.400;2023-06-10T10:24:42;9.30;;;5.15;;
21492;SDS011;10908;50.690;4.400;2023-06-10T10:27:17;7.90;;;5.00;;
21492;SDS011;10908;50.690;4.400;2023-06-10T10:29:55;7.07;;;4.97;;
21492;SDS011;10908;50.690;4.400;2023-06-10T10:32:38;8.88;;;4.90;;
21492;SDS011;10908;50.690;4.400;2023-06-10T10:35:29;9.27;;;4.90;;
21492;SDS011;10908;50.690;4.400;2023-06-10T10:37:55;9.07;;;5.18;;
21492;SDS011;10908;50.690;4.400;2023-06-10T10:40:21;9.73;;;4.78;;
21492;SDS011;10908;50.690;4.400;2023-06-10T10:42:49;10.35;;;4.70;;
21492;SDS011;10908;50.690;4.400;2023-06-10T10:45:15;8.18;;;4.80;;
21492;SDS011;10908;50.690;4.400;2023-06-10T10:47:43;14.00;;;4.72;;
21492;SDS011;10908;50.690;4.400;2023-06-10T10:50:17;6.93;;;4.78;;
21492;SDS011;10908;50.690;4.400;2023-06-10T10:52:58;9.02;;;5.15;;
21492;SDS011;10908;50.690;4.400;2023-06-10T10:55:25;8.27;;;5.13;;
21492;SDS011;10908;50.690;4.400;2023-06-10T10:57:56;7.82;;;4.68;;
21492;SDS011;10908;50.690;4.400;2023-06-10T11:00:32;7.28;;;4.53;;
21492;SDS011;10908;50.690;4.400;2023-06-10T11:03:02;7.28;;;4.65;;
21492;SDS011;10908;50.690;4.400;2023-06-10T11:08:07;8.48;;;4.60;;
21492;SDS011;10908;50.690;4.400;2023-06-10T11:10:35;6.63;;;4.50;;
21492;SDS011;10908;50.690;4.400;2023-06-10T11:13:06;8.38;;;4.88;;
21492;SDS011;10908;50.690;4.400;2023-06-10T11:15:38;8.50;;;5.00;;
21492;SDS011;10908;50.690;4.400;2023-06-10T11:18:24;10.20;;;4.68;;
21492;SDS011;10908;50.690;4.400;2023-06-10T11:28:37;11.68;;;4.70;;
21492;SDS011;10908;50.690;4.400;2023-06-10T11:31:03;11.93;;;4.97;;
21492;SDS011;10908;50.690;4.400;2023-06-10T11:33:29;8.90;;;5.07;;
21492;SDS011;10908;50.690;4.400;2023-06-10T11:35:56;11.68;;;5.07;;
21492;SDS011;10908;50.690;4.400;2023-06-10T11:38:23;8.40;;;4.72;;
21492;SDS011;10908;50.690;4.400;2023-06-10T11:40:49;8.20;;;4.57;;
21492;SDS011;10908;50.690;4.400;2023-06-10T11:43:18;7.78;;;5.00;;
21492;SDS011;10908;50.690;4.400;2023-06-10T11:45:45;8.00;;;4.57;;
21492;SDS011;10908;50.690;4.400;2023-06-10T11:48:12;8.43;;;5.00;;
21492;SDS011;10908;50.690;4.400;2023-06-10T11:50:38;7.68;;;4.82;;
21492;SDS011;10908;50.690;4.400;2023-06-10T11:53:07;8.60;;;5.18;;
21492;SDS011;10908;50.690;4.400;2023-06-10T11:55:43;8.25;;;5.28;;
21492;SDS011;10908;50.690;4.400;2023-06-10T11:58:14;12.02;;;5.00;;
21492;SDS011;10908;50.690;4.400;2023-06-10T12:00:44;10.93;;;5.45;;
21492;SDS011;10908;50.690;4.400;2023-06-10T12:03:11;6.50;;;3.53;;
21492;SDS011;10908;50.690;4.400;2023-06-10T12:05:38;7.55;;;3.90;;
21492;SDS011;10908;50.690;4.400;2023-06-10T12:08:10;6.95;;;4.43;;
21492;SDS011;10908;50.690;4.400;2023-06-10T12:10:42;9.38;;;4.50;;
21492;SDS011;10908;50.690;4.400;2023-06-10T12:13:08;7.88;;;4.68;;
21492;SDS011;10908;50.690;4.400;2023-06-10T12:15:35;11.55;;;5.82;;
21492;SDS011;10908;50.690;4.400;2023-06-10T12:18:02;12.23;;;5.75;;
21492;SDS011;10908;50.690;4.400;2023-06-10T12:20:39;10.98;;;5.68;;
21492;SDS011;10908;50.690;4.400;2023-06-10T12:23:11;8.43;;;5.40;;
21492;SDS011;10908;50.690;4.400;2023-06-10T12:25:39;9.15;;;5.43;;
21492;SDS011;10908;50.690;4.400;2023-06-10T12:28:14;11.77;;;5.70;;
21492;SDS011;10908;50.690;4.400;2023-06-10T12:30:43;9.57;;;5.78;;
21492;SDS011;10908;50.690;4.400;2023-06-10T12:33:19;14.10;;;5.95;;
21492;SDS011;10908;50.690;4.400;2023-06-10T12:35:50;9.95;;;6.18;;
21492;SDS011;10908;50.690;4.400;2023-06-10T12:38:23;9.68;;;4.72;;
21492;SDS011;10908;50.690;4.400;2023-06-10T12:40:52;8.20;;;3.85;;
21492;SDS011;10908;50.690;4.400;2023-06-10T12:43:21;9.90;;;4.45;;
21492;SDS011;10908;50.690;4.400;2023-06-10T12:45:48;6.88;;;3.85;;
21492;SDS011;10908;50.690;4.400;2023-06-10T12:48:21;7.47;;;4.00;;
21492;SDS011;10908;50.690;4.400;2023-06-10T12:50:52;8.63;;;4.45;;
21492;SDS011;10908;50.690;4.400;2023-06-10T12:53:22;8.85;;;4.40;;
21492;SDS011;10908;50.690;4.400;2023-06-10T12:55:50;8.68;;;4.85;;
21492;SDS011;10908;50.690;4.400;2023-06-10T12:58:16;9.43;;;5.47;;
21492;SDS011;10908;50.690;4.400;2023-06-10T13:00:42;8.38;;;5.50;;
21492;SDS011;10908;50.690;4.400;2023-06-10T13:03:08;9.20;;;5.55;;
21492;SDS011;10908;50.690;4.400;2023-06-10T13:05:35;8.50;;;5.82;;
21492;SDS011;10908;50.690;4.400;2023-06-10T13:08:04;9.82;;;5.60;;
21492;SDS011;10908;50.690;4.400;2023-06-10T13:10:32;9.57;;;5.70;;
21492;SDS011;10908;50.690;4.400;2023-06-10T13:12:59;9.52;;;6.18;;
21492;SDS011;10908;50.690;4.400;2023-06-10T13:15:26;10.73;;;6.82;;
21492;SDS011;10908;50.690;4.400;2023-06-10T13:17:52;10.98;;;6.25;;
21492;SDS011;10908;50.690;4.400;2023-06-10T13:20:17;10.73;;;5.70;;
21492;SDS011;10908;50.690;4.400;2023-06-10T13:22:45;11.57;;;5.63;;
21492;SDS011;10908;50.690;4.400;2023-06-10T13:25:12;11.07;;;6.05;;
21492;SDS011;10908;50.690;4.400;2023-06-10T13:27:38;8.63;;;5.55;;
21492;SDS011;10908;50.690;4.400;2023-06-10T13:30:07;9.70;;;5.78;;
21492;SDS011;10908;50.690;4.400;2023-06-10T13:32:33;10.30;;;5.97;;
21492;SDS011;10908;50.690;4.400;2023-06-10T13:34:59;9.95;;;5.72;;
21492;SDS011;10908;50.690;4.400;2023-06-10T13:37:25;8.23;;;5.47;;
21492;SDS011;10908;50.690;4.400;2023-06-10T13:39:51;10.27;;;6.05;;
21492;SDS011;10908;50.690;4.400;2023-06-10T13:42:19;12.60;;;6.60;;
21492;SDS011;10908;50.690;4.400;2023-06-10T13:44:45;11.02;;;5.90;;
21492;SDS011;10908;50.690;4.400;2023-06-10T13:47:12;10.65;;;5.75;;
21492;SDS011;10908;50.690;4.400;2023-06-10T13:49:38;9.57;;;5.55;;
21492;SDS011;10908;50.690;4.400;2023-06-10T13:52:05;9.77;;;5.40;;
21492;SDS011;10908;50.690;4.400;2023-06-10T13:54:31;9.07;;;5.20;;
21492;SDS011;10908;50.690;4.400;2023-06-10T13:56:56;12.45;;;5.88;;
21492;SDS011;10908;50.690;4.400;2023-06-10T13:59:22;9.68;;;5.40;;
21492;SDS011;10908;50.690;4.400;2023-06-10T14:01:48;10.93;;;5.88;;
21492;SDS011;10908;50.690;4.400;2023-06-10T14:04:13;9.18;;;5.72;;
21492;SDS011;10908;50.690;4.400;2023-06-10T14:06:39;10.02;;;5.43;;
21492;SDS011;10908;50.690;4.400;2023-06-10T14:09:05;9.57;;;5.50;;
21492;SDS011;10908;50.690;4.400;2023-06-10T14:11:30;8.20;;;5.50;;
21492;SDS011;10908;50.690;4.400;2023-06-10T14:13:56;11.48;;;6.18;;
21492;SDS011;10908;50.690;4.400;2023-06-10T14:16:23;13.95;;;6.10;;
21492;SDS011;10908;50.690;4.400;2023-06-10T14:18:49;12.13;;;5.60;;
21492;SDS011;10908;50.690;4.400;2023-06-10T14:21:17;10.30;;;5.68;;
21492;SDS011;10908;50.690;4.400;2023-06-10T14:23:43;8.82;;;5.88;;
21492;SDS011;10908;50.690;4.400;2023-06-10T14:26:09;11.38;;;5.90;;
21492;SDS011;10908;50.690;4.400;2023-06-10T14:28:35;8.38;;;5.50;;
21492;SDS011;10908;50.690;4.400;2023-06-10T14:31:00;12.20;;;5.45;;
21492;SDS011;10908;50.690;4.400;2023-06-10T14:33:26;10.65;;;5.50;;
21492;SDS011;10908;50.690;4.400;2023-06-10T14:35:52;8.20;;;5.18;;
21492;SDS011;10908;50.690;4.400;2023-06-10T14:38:17;9.15;;;5.45;;
21492;SDS011;10908;50.690;4.400;2023-06-10T14:40:43;8.77;;;5.50;;
21492;SDS011;10908;50.690;4.400;2023-06-10T14:43:09;7.55;;;5.22;;
21492;SDS011;10908;50.690;4.400;2023-06-10T14:45:38;11.88;;;5.32;;
21492;SDS011;10908;50.690;4.400;2023-06-10T14:48:05;10.82;;;5.82;;
21492;SDS011;10908;50.690;4.400;2023-06-10T14:50:31;10.73;;;5.25;;
21492;SDS011;10908;50.690;4.400;2023-06-10T14:52:58;7.35;;;5.40;;
21492;SDS011;10908;50.690;4.400;2023-06-10T14:55:24;9.93;;;5.35;;